Main page
METAR-TAF:

METAR-TAF

Airports :

Rodez, France

Rodez–Aveyron Airport

latitude: 44-24N, longitude: 002-29E, elevation: 581 m

Current weather observation

The report was made 29 minutes ago, at 07:00 UTC
Wind 6 kt from the East/Southeast
Temperature 8°C
Humidity 57%
Pressure 1015 hPa
Visibility 10 km or more
no clouds below 1500 m and no cumulonimbus

METAR: LFCR 220700Z AUTO 12006KT CAVOK 08/M00 Q1015 NOSIG

Time: 08:29 (07:29 UTC)

Forecast

The report was made 2 hours and 29 minutes ago, at 05:00 UTC
Forecast valid from 22 at 06 UTC to 23 at 06 UTC
Wind 6 kt from the East/Southeast
Visibility 10 km or more
no clouds below 1500 m and no cumulonimbus
Becoming
from 22 at 14 UTC to 22 at 16 UTC
Wind 15 kt from the Southeast with gusts up to 27 kt
Temporary
from 22 at 20 UTC to 23 at 06 UTC
Broken clouds at a height of 1200 ft

TAF: LFCR 220500Z 2206/2306 12006KT CAVOK BECMG 2214/2216 14015G27KT TEMPO 2220/2306 BKN012

Weather observations and forecasts of more than 4000 airports (METAR and TAF reports).

The available stations are represented by yellow and red dots on the map.

Hover mouse over dot to see the name of the station.

Then click to see weather observations and forecasts.

To change the map : click on the green buttons with a black cross to zoom in, on the green button with a dash to zoom out, or on the green arrows for adjacent maps.


METAR-TAF: